sensor_id;sensor_type;location;lat;lon;timestamp;P1;durP1;ratioP1;P2;durP2;ratioP2
37483;SDS011;23337;52.212;9.926;2023-03-04T00:02:19;17.13;;;4.33;;
37483;SDS011;23337;52.212;9.926;2023-03-04T00:04:45;24.37;;;4.80;;
37483;SDS011;23337;52.212;9.926;2023-03-04T00:07:11;15.07;;;4.53;;
37483;SDS011;23337;52.212;9.926;2023-03-04T00:09:40;12.73;;;4.43;;
37483;SDS011;23337;52.212;9.926;2023-03-04T00:12:06;14.87;;;4.10;;
37483;SDS011;23337;52.212;9.926;2023-03-04T00:14:32;18.33;;;5.10;;
37483;SDS011;23337;52.212;9.926;2023-03-04T00:16:58;19.03;;;4.83;;
37483;SDS011;23337;52.212;9.926;2023-03-04T00:19:24;17.20;;;4.10;;
37483;SDS011;23337;52.212;9.926;2023-03-04T00:21:50;14.47;;;4.23;;
37483;SDS011;23337;52.212;9.926;2023-03-04T00:24:16;15.40;;;4.30;;
37483;SDS011;23337;52.212;9.926;2023-03-04T00:26:42;19.60;;;5.20;;
37483;SDS011;23337;52.212;9.926;2023-03-04T00:29:08;12.33;;;4.10;;
37483;SDS011;23337;52.212;9.926;2023-03-04T00:31:34;23.27;;;4.70;;
37483;SDS011;23337;52.212;9.926;2023-03-04T00:34:00;11.57;;;4.00;;
37483;SDS011;23337;52.212;9.926;2023-03-04T00:36:26;10.17;;;3.57;;
37483;SDS011;23337;52.212;9.926;2023-03-04T00:38:52;14.97;;;5.03;;
37483;SDS011;23337;52.212;9.926;2023-03-04T00:41:18;22.77;;;4.70;;
37483;SDS011;23337;52.212;9.926;2023-03-04T00:43:44;13.57;;;3.60;;
37483;SDS011;23337;52.212;9.926;2023-03-04T00:46:10;15.07;;;3.57;;
37483;SDS011;23337;52.212;9.926;2023-03-04T00:48:35;16.47;;;4.17;;
37483;SDS011;23337;52.212;9.926;2023-03-04T00:51:02;15.00;;;4.23;;
37483;SDS011;23337;52.212;9.926;2023-03-04T00:53:28;14.37;;;3.77;;
37483;SDS011;23337;52.212;9.926;2023-03-04T00:55:54;17.13;;;4.23;;
37483;SDS011;23337;52.212;9.926;2023-03-04T00:58:20;16.60;;;4.13;;
37483;SDS011;23337;52.212;9.926;2023-03-04T01:00:46;14.77;;;3.70;;
37483;SDS011;23337;52.212;9.926;2023-03-04T01:03:12;13.30;;;3.50;;
37483;SDS011;23337;52.212;9.926;2023-03-04T01:05:38;17.77;;;4.53;;
37483;SDS011;23337;52.212;9.926;2023-03-04T01:08:04;18.77;;;4.83;;
37483;SDS011;23337;52.212;9.926;2023-03-04T01:10:30;15.90;;;4.30;;
37483;SDS011;23337;52.212;9.926;2023-03-04T01:12:56;12.37;;;4.43;;
37483;SDS011;23337;52.212;9.926;2023-03-04T01:15:23;16.80;;;4.67;;
37483;SDS011;23337;52.212;9.926;2023-03-04T01:17:49;18.53;;;4.30;;
37483;SDS011;23337;52.212;9.926;2023-03-04T01:20:15;17.50;;;4.70;;
37483;SDS011;23337;52.212;9.926;2023-03-04T01:22:41;15.63;;;3.97;;
37483;SDS011;23337;52.212;9.926;2023-03-04T01:25:07;12.30;;;4.07;;
37483;SDS011;23337;52.212;9.926;2023-03-04T01:27:34;21.60;;;4.67;;
37483;SDS011;23337;52.212;9.926;2023-03-04T01:30:00;9.63;;;3.83;;
37483;SDS011;23337;52.212;9.926;2023-03-04T01:32:25;11.27;;;4.63;;
37483;SDS011;23337;52.212;9.926;2023-03-04T01:34:51;14.77;;;3.23;;
37483;SDS011;23337;52.212;9.926;2023-03-04T01:37:17;13.90;;;4.10;;
37483;SDS011;23337;52.212;9.926;2023-03-04T01:39:43;16.27;;;3.73;;
37483;SDS011;23337;52.212;9.926;2023-03-04T01:42:12;15.90;;;3.70;;
37483;SDS011;23337;52.212;9.926;2023-03-04T01:44:42;16.17;;;4.73;;
37483;SDS011;23337;52.212;9.926;2023-03-04T01:47:08;17.77;;;4.67;;
37483;SDS011;23337;52.212;9.926;2023-03-04T01:49:34;10.27;;;3.00;;
37483;SDS011;23337;52.212;9.926;2023-03-04T01:52:00;14.00;;;4.63;;
37483;SDS011;23337;52.212;9.926;2023-03-04T01:54:26;12.63;;;3.93;;
37483;SDS011;23337;52.212;9.926;2023-03-04T01:56:52;15.00;;;4.13;;
37483;SDS011;23337;52.212;9.926;2023-03-04T01:59:20;16.80;;;5.03;;
37483;SDS011;23337;52.212;9.926;2023-03-04T02:01:54;11.37;;;3.33;;
37483;SDS011;23337;52.212;9.926;2023-03-04T02:04:21;18.00;;;5.60;;
37483;SDS011;23337;52.212;9.926;2023-03-04T02:06:48;19.10;;;4.07;;
37483;SDS011;23337;52.212;9.926;2023-03-04T02:09:15;15.73;;;3.37;;
37483;SDS011;23337;52.212;9.926;2023-03-04T02:11:42;13.23;;;4.47;;
37483;SDS011;23337;52.212;9.926;2023-03-04T02:14:09;10.90;;;3.00;;
37483;SDS011;23337;52.212;9.926;2023-03-04T02:16:35;11.07;;;3.33;;
37483;SDS011;23337;52.212;9.926;2023-03-04T02:19:03;8.30;;;2.87;;
37483;SDS011;23337;52.212;9.926;2023-03-04T02:21:30;10.83;;;3.60;;
37483;SDS011;23337;52.212;9.926;2023-03-04T02:26:23;13.37;;;3.13;;
37483;SDS011;23337;52.212;9.926;2023-03-04T02:28:51;10.13;;;2.77;;
37483;SDS011;23337;52.212;9.926;2023-03-04T02:31:22;9.00;;;2.23;;
37483;SDS011;23337;52.212;9.926;2023-03-04T02:33:49;12.57;;;2.87;;
37483;SDS011;23337;52.212;9.926;2023-03-04T02:36:15;9.27;;;2.43;;
37483;SDS011;23337;52.212;9.926;2023-03-04T02:38:41;8.63;;;2.40;;
37483;SDS011;23337;52.212;9.926;2023-03-04T02:41:09;10.90;;;2.50;;
37483;SDS011;23337;52.212;9.926;2023-03-04T02:43:37;12.30;;;3.30;;
37483;SDS011;23337;52.212;9.926;2023-03-04T02:46:03;11.53;;;2.47;;
37483;SDS011;23337;52.212;9.926;2023-03-04T02:48:29;17.73;;;2.53;;
37483;SDS011;23337;52.212;9.926;2023-03-04T02:50:55;12.03;;;2.20;;
37483;SDS011;23337;52.212;9.926;2023-03-04T02:53:21;15.03;;;2.43;;
37483;SDS011;23337;52.212;9.926;2023-03-04T02:55:49;10.87;;;2.30;;
37483;SDS011;23337;52.212;9.926;2023-03-04T02:58:15;9.17;;;2.20;;
37483;SDS011;23337;52.212;9.926;2023-03-04T03:00:42;12.20;;;2.30;;
37483;SDS011;23337;52.212;9.926;2023-03-04T03:03:08;9.97;;;2.43;;
37483;SDS011;23337;52.212;9.926;2023-03-04T03:05:34;8.87;;;1.63;;
37483;SDS011;23337;52.212;9.926;2023-03-04T03:08:00;15.97;;;2.60;;
37483;SDS011;23337;52.212;9.926;2023-03-04T03:10:26;12.57;;;2.23;;
37483;SDS011;23337;52.212;9.926;2023-03-04T03:12:52;9.37;;;2.00;;
37483;SDS011;23337;52.212;9.926;2023-03-04T03:15:18;13.03;;;2.30;;
37483;SDS011;23337;52.212;9.926;2023-03-04T03:17:44;9.47;;;1.73;;
37483;SDS011;23337;52.212;9.926;2023-03-04T03:20:10;9.40;;;1.70;;
37483;SDS011;23337;52.212;9.926;2023-03-04T03:22:37;7.00;;;1.43;;
37483;SDS011;23337;52.212;9.926;2023-03-04T03:25:03;7.50;;;1.90;;
37483;SDS011;23337;52.212;9.926;2023-03-04T03:27:29;9.30;;;1.43;;
37483;SDS011;23337;52.212;9.926;2023-03-04T03:29:55;10.77;;;2.10;;
37483;SDS011;23337;52.212;9.926;2023-03-04T03:32:21;7.93;;;3.00;;
37483;SDS011;23337;52.212;9.926;2023-03-04T03:34:47;8.47;;;2.60;;
37483;SDS011;23337;52.212;9.926;2023-03-04T03:37:13;9.53;;;1.70;;
37483;SDS011;23337;52.212;9.926;2023-03-04T03:39:39;9.97;;;1.97;;
37483;SDS011;23337;52.212;9.926;2023-03-04T03:42:05;8.60;;;1.63;;
37483;SDS011;23337;52.212;9.926;2023-03-04T03:44:31;8.50;;;2.40;;
37483;SDS011;23337;52.212;9.926;2023-03-04T03:46:57;9.40;;;1.53;;
37483;SDS011;23337;52.212;9.926;2023-03-04T03:49:23;10.47;;;2.20;;
37483;SDS011;23337;52.212;9.926;2023-03-04T03:51:49;10.23;;;1.97;;
37483;SDS011;23337;52.212;9.926;2023-03-04T03:54:15;11.70;;;2.20;;
37483;SDS011;23337;52.212;9.926;2023-03-04T03:56:41;11.00;;;3.00;;
37483;SDS011;23337;52.212;9.926;2023-03-04T03:59:07;8.53;;;1.80;;
37483;SDS011;23337;52.212;9.926;2023-03-04T04:01:33;7.57;;;1.60;;
37483;SDS011;23337;52.212;9.926;2023-03-04T04:03:59;5.13;;;1.40;;
37483;SDS011;23337;52.212;9.926;2023-03-04T04:06:25;6.20;;;1.73;;
37483;SDS011;23337;52.212;9.926;2023-03-04T04:08:51;12.03;;;2.60;;
37483;SDS011;23337;52.212;9.926;2023-03-04T04:11:17;11.20;;;2.43;;
37483;SDS011;23337;52.212;9.926;2023-03-04T04:13:43;11.80;;;1.50;;
37483;SDS011;23337;52.212;9.926;2023-03-04T04:16:10;7.83;;;1.60;;
37483;SDS011;23337;52.212;9.926;2023-03-04T04:18:36;13.43;;;2.87;;
37483;SDS011;23337;52.212;9.926;2023-03-04T04:21:02;6.77;;;1.80;;
37483;SDS011;23337;52.212;9.926;2023-03-04T04:23:29;7.37;;;1.50;;
37483;SDS011;23337;52.212;9.926;2023-03-04T04:25:55;10.27;;;1.47;;
37483;SDS011;23337;52.212;9.926;2023-03-04T04:28:21;11.67;;;2.50;;
37483;SDS011;23337;52.212;9.926;2023-03-04T04:30:47;10.30;;;1.90;;
37483;SDS011;23337;52.212;9.926;2023-03-04T04:33:13;10.87;;;1.93;;
37483;SDS011;23337;52.212;9.926;2023-03-04T04:35:39;7.27;;;2.13;;
37483;SDS011;23337;52.212;9.926;2023-03-04T04:38:05;8.13;;;1.93;;
37483;SDS011;23337;52.212;9.926;2023-03-04T04:40:31;8.50;;;1.53;;
37483;SDS011;23337;52.212;9.926;2023-03-04T04:42:57;8.87;;;2.40;;
37483;SDS011;23337;52.212;9.926;2023-03-04T04:45:23;10.53;;;2.10;;
37483;SDS011;23337;52.212;9.926;2023-03-04T04:47:50;7.07;;;1.77;;
37483;SDS011;23337;52.212;9.926;2023-03-04T04:50:16;6.07;;;1.50;;
37483;SDS011;23337;52.212;9.926;2023-03-04T04:52:42;9.97;;;1.80;;
37483;SDS011;23337;52.212;9.926;2023-03-04T04:55:08;9.90;;;2.10;;
37483;SDS011;23337;52.212;9.926;2023-03-04T04:57:34;5.87;;;1.90;;
37483;SDS011;23337;52.212;9.926;2023-03-04T05:00:00;9.93;;;2.23;;
37483;SDS011;23337;52.212;9.926;2023-03-04T05:02:26;9.87;;;1.77;;
37483;SDS011;23337;52.212;9.926;2023-03-04T05:04:52;11.73;;;2.40;;
37483;SDS011;23337;52.212;9.926;2023-03-04T05:07:18;8.07;;;1.40;;
37483;SDS011;23337;52.212;9.926;2023-03-04T05:09:44;12.97;;;2.57;;
37483;SDS011;23337;52.212;9.926;2023-03-04T05:12:10;7.60;;;1.83;;
37483;SDS011;23337;52.212;9.926;2023-03-04T05:14:36;12.47;;;2.20;;
37483;SDS011;23337;52.212;9.926;2023-03-04T05:17:02;11.03;;;2.53;;
37483;SDS011;23337;52.212;9.926;2023-03-04T05:19:28;11.33;;;2.43;;
37483;SDS011;23337;52.212;9.926;2023-03-04T05:21:54;4.90;;;1.73;;
37483;SDS011;23337;52.212;9.926;2023-03-04T05:24:20;9.57;;;1.83;;
37483;SDS011;23337;52.212;9.926;2023-03-04T05:26:46;6.30;;;1.80;;
37483;SDS011;23337;52.212;9.926;2023-03-04T05:29:12;12.20;;;1.57;;
37483;SDS011;23337;52.212;9.926;2023-03-04T05:31:38;8.63;;;1.60;;
37483;SDS011;23337;52.212;9.926;2023-03-04T05:34:04;10.70;;;2.07;;
37483;SDS011;23337;52.212;9.926;2023-03-04T05:36:30;9.27;;;1.60;;
37483;SDS011;23337;52.212;9.926;2023-03-04T05:38:56;7.60;;;1.60;;
37483;SDS011;23337;52.212;9.926;2023-03-04T05:41:22;7.27;;;1.60;;
37483;SDS011;23337;52.212;9.926;2023-03-04T05:43:48;7.17;;;2.83;;
37483;SDS011;23337;52.212;9.926;2023-03-04T05:46:15;6.23;;;1.43;;
37483;SDS011;23337;52.212;9.926;2023-03-04T05:48:42;5.47;;;1.40;;
37483;SDS011;23337;52.212;9.926;2023-03-04T05:51:08;6.57;;;1.37;;
37483;SDS011;23337;52.212;9.926;2023-03-04T05:53:34;8.83;;;1.73;;
37483;SDS011;23337;52.212;9.926;2023-03-04T05:56:11;7.20;;;1.40;;
37483;SDS011;23337;52.212;9.926;2023-03-04T05:58:38;6.93;;;2.43;;
37483;SDS011;23337;52.212;9.926;2023-03-04T06:01:04;3.13;;;1.30;;
37483;SDS011;23337;52.212;9.926;2023-03-04T06:03:30;6.07;;;1.73;;
37483;SDS011;23337;52.212;9.926;2023-03-04T06:05:57;8.70;;;1.37;;
37483;SDS011;23337;52.212;9.926;2023-03-04T06:08:23;5.73;;;1.13;;
37483;SDS011;23337;52.212;9.926;2023-03-04T06:10:51;9.47;;;1.60;;
37483;SDS011;23337;52.212;9.926;2023-03-04T06:13:17;5.27;;;1.27;;
37483;SDS011;23337;52.212;9.926;2023-03-04T06:15:43;8.73;;;1.27;;
37483;SDS011;23337;52.212;9.926;2023-03-04T06:18:09;3.63;;;1.20;;
37483;SDS011;23337;52.212;9.926;2023-03-04T06:20:35;3.37;;;1.60;;
37483;SDS011;23337;52.212;9.926;2023-03-04T06:23:02;4.40;;;1.07;;
37483;SDS011;23337;52.212;9.926;2023-03-04T06:25:28;3.80;;;1.27;;
37483;SDS011;23337;52.212;9.926;2023-03-04T06:27:54;6.47;;;2.07;;
37483;SDS011;23337;52.212;9.926;2023-03-04T06:30:20;5.90;;;1.23;;
37483;SDS011;23337;52.212;9.926;2023-03-04T06:32:46;3.00;;;1.20;;
37483;SDS011;23337;52.212;9.926;2023-03-04T06:35:12;3.23;;;1.00;;
37483;SDS011;23337;52.212;9.926;2023-03-04T06:37:39;3.37;;;1.10;;
37483;SDS011;23337;52.212;9.926;2023-03-04T06:40:05;6.67;;;1.23;;
37483;SDS011;23337;52.212;9.926;2023-03-04T06:42:32;4.93;;;1.00;;
37483;SDS011;23337;52.212;9.926;2023-03-04T06:44:58;3.60;;;1.20;;
37483;SDS011;23337;52.212;9.926;2023-03-04T06:47:24;3.87;;;1.17;;
37483;SDS011;23337;52.212;9.926;2023-03-04T06:49:50;3.90;;;1.30;;
37483;SDS011;23337;52.212;9.926;2023-03-04T06:52:16;4.10;;;1.37;;
37483;SDS011;23337;52.212;9.926;2023-03-04T06:54:42;4.93;;;1.03;;
37483;SDS011;23337;52.212;9.926;2023-03-04T06:57:08;11.03;;;1.50;;
37483;SDS011;23337;52.212;9.926;2023-03-04T06:59:34;3.80;;;0.90;;
37483;SDS011;23337;52.212;9.926;2023-03-04T07:02:00;6.30;;;1.10;;
37483;SDS011;23337;52.212;9.926;2023-03-04T07:04:26;3.43;;;1.23;;
37483;SDS011;23337;52.212;9.926;2023-03-04T07:06:52;5.17;;;1.30;;
37483;SDS011;23337;52.212;9.926;2023-03-04T07:09:18;1.80;;;0.93;;
37483;SDS011;23337;52.212;9.926;2023-03-04T07:11:44;5.70;;;1.33;;
37483;SDS011;23337;52.212;9.926;2023-03-04T07:14:10;5.47;;;1.07;;
37483;SDS011;23337;52.212;9.926;2023-03-04T07:16:36;5.03;;;1.17;;
37483;SDS011;23337;52.212;9.926;2023-03-04T07:19:02;1.67;;;1.00;;
37483;SDS011;23337;52.212;9.926;2023-03-04T07:21:28;5.73;;;0.83;;
37483;SDS011;23337;52.212;9.926;2023-03-04T07:23:55;3.83;;;1.00;;
37483;SDS011;23337;52.212;9.926;2023-03-04T07:26:21;1.80;;;0.80;;
37483;SDS011;23337;52.212;9.926;2023-03-04T07:28:47;4.60;;;1.03;;
37483;SDS011;23337;52.212;9.926;2023-03-04T07:31:29;3.40;;;1.50;;
37483;SDS011;23337;52.212;9.926;2023-03-04T07:33:57;3.20;;;1.00;;
37483;SDS011;23337;52.212;9.926;2023-03-04T07:36:23;4.80;;;1.10;;
37483;SDS011;23337;52.212;9.926;2023-03-04T07:38:50;8.03;;;1.63;;
37483;SDS011;23337;52.212;9.926;2023-03-04T07:41:16;4.90;;;1.73;;
37483;SDS011;23337;52.212;9.926;2023-03-04T07:43:43;2.23;;;1.10;;
37483;SDS011;23337;52.212;9.926;2023-03-04T07:46:09;2.67;;;0.70;;
37483;SDS011;23337;52.212;9.926;2023-03-04T07:48:35;7.63;;;1.40;;
37483;SDS011;23337;52.212;9.926;2023-03-04T07:51:15;7.03;;;1.30;;
37483;SDS011;23337;52.212;9.926;2023-03-04T07:53:42;2.47;;;1.00;;
37483;SDS011;23337;52.212;9.926;2023-03-04T07:56:10;3.33;;;0.90;;
37483;SDS011;23337;52.212;9.926;2023-03-04T07:58:36;6.27;;;1.27;;
37483;SDS011;23337;52.212;9.926;2023-03-04T08:01:36;3.13;;;0.90;;
37483;SDS011;23337;52.212;9.926;2023-03-04T08:03:55;5.03;;;1.33;;
37483;SDS011;23337;52.212;9.926;2023-03-04T08:06:21;4.43;;;1.63;;
37483;SDS011;23337;52.212;9.926;2023-03-04T08:08:48;5.67;;;1.70;;
37483;SDS011;23337;52.212;9.926;2023-03-04T08:11:17;6.73;;;1.80;;
37483;SDS011;23337;52.212;9.926;2023-03-04T08:13:44;8.50;;;2.07;;
37483;SDS011;23337;52.212;9.926;2023-03-04T08:16:13;11.77;;;1.97;;
37483;SDS011;23337;52.212;9.926;2023-03-04T08:18:40;6.60;;;1.80;;
37483;SDS011;23337;52.212;9.926;2023-03-04T08:21:07;6.77;;;2.37;;
37483;SDS011;23337;52.212;9.926;2023-03-04T08:23:33;5.10;;;2.30;;
37483;SDS011;23337;52.212;9.926;2023-03-04T08:25:59;4.93;;;1.90;;
37483;SDS011;23337;52.212;9.926;2023-03-04T08:28:29;2.13;;;1.10;;
37483;SDS011;23337;52.212;9.926;2023-03-04T08:30:55;4.93;;;1.30;;
37483;SDS011;23337;52.212;9.926;2023-03-04T08:33:21;3.30;;;1.13;;
37483;SDS011;23337;52.212;9.926;2023-03-04T08:35:47;1.17;;;0.80;;
37483;SDS011;23337;52.212;9.926;2023-03-04T08:38:13;2.50;;;1.00;;
37483;SDS011;23337;52.212;9.926;2023-03-04T08:40:39;8.50;;;1.60;;
37483;SDS011;23337;52.212;9.926;2023-03-04T08:43:05;4.73;;;1.37;;
37483;SDS011;23337;52.212;9.926;2023-03-04T08:45:31;5.23;;;1.37;;
37483;SDS011;23337;52.212;9.926;2023-03-04T08:47:57;2.87;;;1.40;;
37483;SDS011;23337;52.212;9.926;2023-03-04T08:50:23;3.23;;;1.57;;
37483;SDS011;23337;52.212;9.926;2023-03-04T08:52:51;4.10;;;1.40;;
37483;SDS011;23337;52.212;9.926;2023-03-04T08:55:17;5.60;;;2.63;;
37483;SDS011;23337;52.212;9.926;2023-03-04T08:57:44;4.50;;;1.40;;
37483;SDS011;23337;52.212;9.926;2023-03-04T09:00:10;4.17;;;1.53;;
37483;SDS011;23337;52.212;9.926;2023-03-04T09:02:36;4.33;;;1.70;;
37483;SDS011;23337;52.212;9.926;2023-03-04T09:05:03;7.47;;;2.20;;
37483;SDS011;23337;52.212;9.926;2023-03-04T09:07:29;2.33;;;1.93;;
37483;SDS011;23337;52.212;9.926;2023-03-04T09:09:55;2.37;;;1.40;;
37483;SDS011;23337;52.212;9.926;2023-03-04T09:12:21;3.30;;;1.47;;
37483;SDS011;23337;52.212;9.926;2023-03-04T09:14:47;4.70;;;1.40;;
37483;SDS011;23337;52.212;9.926;2023-03-04T09:17:13;1.67;;;1.50;;
37483;SDS011;23337;52.212;9.926;2023-03-04T09:19:38;4.17;;;0.93;;
37483;SDS011;23337;52.212;9.926;2023-03-04T09:22:04;5.27;;;1.17;;
37483;SDS011;23337;52.212;9.926;2023-03-04T09:24:30;6.17;;;1.70;;
37483;SDS011;23337;52.212;9.926;2023-03-04T09:26:57;3.23;;;1.17;;
37483;SDS011;23337;52.212;9.926;2023-03-04T09:29:23;4.77;;;1.33;;
37483;SDS011;23337;52.212;9.926;2023-03-04T09:31:49;5.03;;;1.40;;
37483;SDS011;23337;52.212;9.926;2023-03-04T09:34:15;4.00;;;1.27;;
37483;SDS011;23337;52.212;9.926;2023-03-04T09:36:41;8.33;;;1.97;;
37483;SDS011;23337;52.212;9.926;2023-03-04T09:39:07;3.57;;;1.70;;
37483;SDS011;23337;52.212;9.926;2023-03-04T09:41:43;4.77;;;1.40;;
37483;SDS011;23337;52.212;9.926;2023-03-04T09:46:39;5.47;;;1.87;;
37483;SDS011;23337;52.212;9.926;2023-03-04T09:49:06;6.70;;;1.70;;
37483;SDS011;23337;52.212;9.926;2023-03-04T09:51:40;5.73;;;2.13;;
37483;SDS011;23337;52.212;9.926;2023-03-04T09:55:13;3.43;;;1.53;;
37483;SDS011;23337;52.212;9.926;2023-03-04T10:00:04;4.00;;;1.50;;
37483;SDS011;23337;52.212;9.926;2023-03-04T10:05:12;4.17;;;1.20;;
37483;SDS011;23337;52.212;9.926;2023-03-04T10:07:39;2.90;;;1.40;;
37483;SDS011;23337;52.212;9.926;2023-03-04T10:10:08;2.70;;;1.40;;
37483;SDS011;23337;52.212;9.926;2023-03-04T10:12:36;3.47;;;1.20;;
37483;SDS011;23337;52.212;9.926;2023-03-04T10:15:49;3.97;;;1.30;;
37483;SDS011;23337;52.212;9.926;2023-03-04T10:17:55;6.00;;;2.03;;
37483;SDS011;23337;52.212;9.926;2023-03-04T10:20:25;4.90;;;1.33;;
37483;SDS011;23337;52.212;9.926;2023-03-04T10:22:57;5.63;;;1.50;;
37483;SDS011;23337;52.212;9.926;2023-03-04T10:25:25;6.50;;;2.37;;
37483;SDS011;23337;52.212;9.926;2023-03-04T10:27:56;7.67;;;2.33;;
37483;SDS011;23337;52.212;9.926;2023-03-04T10:32:57;9.70;;;3.17;;
37483;SDS011;23337;52.212;9.926;2023-03-04T10:35:25;10.50;;;4.50;;
37483;SDS011;23337;52.212;9.926;2023-03-04T10:37:52;13.87;;;4.87;;
37483;SDS011;23337;52.212;9.926;2023-03-04T10:40:22;16.47;;;5.17;;
37483;SDS011;23337;52.212;9.926;2023-03-04T10:42:48;14.90;;;2.90;;
37483;SDS011;23337;52.212;9.926;2023-03-04T10:45:19;13.40;;;4.37;;
37483;SDS011;23337;52.212;9.926;2023-03-04T10:47:50;20.00;;;5.40;;
37483;SDS011;23337;52.212;9.926;2023-03-04T10:50:22;16.83;;;6.37;;
37483;SDS011;23337;52.212;9.926;2023-03-04T10:52:48;10.43;;;3.40;;
37483;SDS011;23337;52.212;9.926;2023-03-04T10:55:27;8.50;;;3.00;;
37483;SDS011;23337;52.212;9.926;2023-03-04T10:57:54;9.33;;;2.60;;
37483;SDS011;23337;52.212;9.926;2023-03-04T11:00:28;5.57;;;2.50;;
37483;SDS011;23337;52.212;9.926;2023-03-04T11:05:40;10.03;;;2.00;;
37483;SDS011;23337;52.212;9.926;2023-03-04T11:08:14;9.83;;;1.93;;
37483;SDS011;23337;52.212;9.926;2023-03-04T11:10:41;7.47;;;2.17;;
37483;SDS011;23337;52.212;9.926;2023-03-04T11:15:48;6.50;;;2.60;;
37483;SDS011;23337;52.212;9.926;2023-03-04T11:18:14;6.23;;;1.43;;
37483;SDS011;23337;52.212;9.926;2023-03-04T11:20:41;6.00;;;1.50;;
37483;SDS011;23337;52.212;9.926;2023-03-04T11:23:15;8.83;;;2.03;;
37483;SDS011;23337;52.212;9.926;2023-03-04T11:25:48;6.63;;;1.60;;
37483;SDS011;23337;52.212;9.926;2023-03-04T11:28:25;6.30;;;2.00;;
37483;SDS011;23337;52.212;9.926;2023-03-04T11:30:59;5.60;;;1.63;;
37483;SDS011;23337;52.212;9.926;2023-03-04T11:33:27;6.03;;;1.70;;
37483;SDS011;23337;52.212;9.926;2023-03-04T11:36:03;7.33;;;1.43;;
37483;SDS011;23337;52.212;9.926;2023-03-04T11:38:32;6.23;;;1.50;;
37483;SDS011;23337;52.212;9.926;2023-03-04T11:41:03;5.77;;;1.93;;
37483;SDS011;23337;52.212;9.926;2023-03-04T11:43:37;7.03;;;1.80;;
37483;SDS011;23337;52.212;9.926;2023-03-04T11:46:14;5.93;;;2.20;;
37483;SDS011;23337;52.212;9.926;2023-03-04T11:48:52;5.57;;;2.33;;
37483;SDS011;23337;52.212;9.926;2023-03-04T11:56:42;4.53;;;2.20;;
37483;SDS011;23337;52.212;9.926;2023-03-04T12:09:44;7.43;;;2.50;;
37483;SDS011;23337;52.212;9.926;2023-03-04T12:12:22;7.50;;;2.10;;
37483;SDS011;23337;52.212;9.926;2023-03-04T12:20:13;5.43;;;2.43;;
37483;SDS011;23337;52.212;9.926;2023-03-04T12:22:42;6.77;;;3.10;;
37483;SDS011;23337;52.212;9.926;2023-03-04T12:25:21;6.77;;;2.83;;
37483;SDS011;23337;52.212;9.926;2023-03-04T12:27:58;7.03;;;3.03;;
37483;SDS011;23337;52.212;9.926;2023-03-04T12:43:25;6.10;;;1.83;;
37483;SDS011;23337;52.212;9.926;2023-03-04T12:46:09;5.43;;;1.60;;
37483;SDS011;23337;52.212;9.926;2023-03-04T12:48:49;6.30;;;1.93;;
37483;SDS011;23337;52.212;9.926;2023-03-04T12:51:24;6.00;;;1.50;;
37483;SDS011;23337;52.212;9.926;2023-03-04T12:56:27;6.40;;;1.70;;
37483;SDS011;23337;52.212;9.926;2023-03-04T12:58:57;7.50;;;1.77;;
37483;SDS011;23337;52.212;9.926;2023-03-04T13:01:25;3.73;;;1.33;;
37483;SDS011;23337;52.212;9.926;2023-03-04T13:06:22;4.30;;;1.30;;
37483;SDS011;23337;52.212;9.926;2023-03-04T13:11:40;6.47;;;1.20;;
37483;SDS011;23337;52.212;9.926;2023-03-04T13:14:21;5.23;;;1.80;;
37483;SDS011;23337;52.212;9.926;2023-03-04T13:16:51;6.00;;;1.70;;
37483;SDS011;23337;52.212;9.926;2023-03-04T13:22:02;7.63;;;1.30;;
37483;SDS011;23337;52.212;9.926;2023-03-04T13:24:45;5.30;;;1.10;;
37483;SDS011;23337;52.212;9.926;2023-03-04T13:29:56;3.33;;;0.83;;
37483;SDS011;23337;52.212;9.926;2023-03-04T13:32:35;8.73;;;1.80;;
37483;SDS011;23337;52.212;9.926;2023-03-04T13:35:21;3.97;;;1.07;;
37483;SDS011;23337;52.212;9.926;2023-03-04T13:37:58;5.30;;;0.93;;
37483;SDS011;23337;52.212;9.926;2023-03-04T13:40:36;2.80;;;1.20;;
37483;SDS011;23337;52.212;9.926;2023-03-04T13:43:23;3.83;;;1.07;;
37483;SDS011;23337;52.212;9.926;2023-03-04T13:45:49;3.90;;;0.77;;
37483;SDS011;23337;52.212;9.926;2023-03-04T13:48:33;5.43;;;1.40;;
37483;SDS011;23337;52.212;9.926;2023-03-04T13:51:01;4.87;;;1.00;;
37483;SDS011;23337;52.212;9.926;2023-03-04T13:53:38;5.43;;;1.37;;
37483;SDS011;23337;52.212;9.926;2023-03-04T13:56:11;5.23;;;1.37;;
37483;SDS011;23337;52.212;9.926;2023-03-04T13:58:39;5.40;;;1.80;;
37483;SDS011;23337;52.212;9.926;2023-03-04T14:01:17;5.07;;;1.40;;
37483;SDS011;23337;52.212;9.926;2023-03-04T14:03:46;7.70;;;1.67;;
37483;SDS011;23337;52.212;9.926;2023-03-04T14:06:20;4.30;;;1.80;;
37483;SDS011;23337;52.212;9.926;2023-03-04T14:08:47;3.93;;;1.40;;
37483;SDS011;23337;52.212;9.926;2023-03-04T14:11:33;6.73;;;1.77;;
37483;SDS011;23337;52.212;9.926;2023-03-04T14:14:03;13.93;;;2.63;;
37483;SDS011;23337;52.212;9.926;2023-03-04T14:16:29;7.93;;;1.57;;
37483;SDS011;23337;52.212;9.926;2023-03-04T14:19:00;6.47;;;1.40;;
37483;SDS011;23337;52.212;9.926;2023-03-04T14:21:27;5.20;;;1.30;;
37483;SDS011;23337;52.212;9.926;2023-03-04T14:24:26;6.37;;;1.97;;
37483;SDS011;23337;52.212;9.926;2023-03-04T14:26:45;8.50;;;2.23;;
37483;SDS011;23337;52.212;9.926;2023-03-04T14:29:24;6.57;;;2.37;;
37483;SDS011;23337;52.212;9.926;2023-03-04T14:31:51;8.57;;;2.07;;
37483;SDS011;23337;52.212;9.926;2023-03-04T14:34:22;6.33;;;1.30;;
37483;SDS011;23337;52.212;9.926;2023-03-04T14:36:49;11.43;;;2.27;;
37483;SDS011;23337;52.212;9.926;2023-03-04T14:39:15;9.03;;;1.50;;
37483;SDS011;23337;52.212;9.926;2023-03-04T14:41:42;24.13;;;11.20;;
37483;SDS011;23337;52.212;9.926;2023-03-04T14:46:59;4.43;;;1.40;;
37483;SDS011;23337;52.212;9.926;2023-03-04T14:49:26;7.03;;;1.87;;
37483;SDS011;23337;52.212;9.926;2023-03-04T14:51:53;9.77;;;2.83;;
37483;SDS011;23337;52.212;9.926;2023-03-04T14:54:39;8.27;;;2.33;;
37483;SDS011;23337;52.212;9.926;2023-03-04T14:57:27;9.90;;;2.30;;
37483;SDS011;23337;52.212;9.926;2023-03-04T14:59:52;6.77;;;1.80;;
37483;SDS011;23337;52.212;9.926;2023-03-04T15:02:20;8.37;;;1.80;;
37483;SDS011;23337;52.212;9.926;2023-03-04T15:04:48;8.20;;;1.93;;
37483;SDS011;23337;52.212;9.926;2023-03-04T15:07:16;5.10;;;1.77;;
37483;SDS011;23337;52.212;9.926;2023-03-04T15:09:48;7.50;;;1.33;;
37483;SDS011;23337;52.212;9.926;2023-03-04T15:12:20;5.70;;;1.60;;
37483;SDS011;23337;52.212;9.926;2023-03-04T15:14:47;14.03;;;3.00;;
37483;SDS011;23337;52.212;9.926;2023-03-04T15:19:48;5.87;;;2.07;;
37483;SDS011;23337;52.212;9.926;2023-03-04T15:22:22;10.17;;;2.97;;
37483;SDS011;23337;52.212;9.926;2023-03-04T15:24:47;9.67;;;2.10;;
37483;SDS011;23337;52.212;9.926;2023-03-04T15:27:14;7.37;;;2.50;;
37483;SDS011;23337;52.212;9.926;2023-03-04T15:29:41;5.70;;;1.70;;
37483;SDS011;23337;52.212;9.926;2023-03-04T15:32:08;6.03;;;1.83;;
37483;SDS011;23337;52.212;9.926;2023-03-04T15:34:34;7.23;;;2.37;;
37483;SDS011;23337;52.212;9.926;2023-03-04T15:37:00;9.10;;;2.03;;
37483;SDS011;23337;52.212;9.926;2023-03-04T15:39:26;11.57;;;1.70;;
37483;SDS011;23337;52.212;9.926;2023-03-04T15:41:52;7.47;;;1.87;;
37483;SDS011;23337;52.212;9.926;2023-03-04T15:44:19;9.80;;;3.73;;
37483;SDS011;23337;52.212;9.926;2023-03-04T15:46:45;7.97;;;1.93;;
37483;SDS011;23337;52.212;9.926;2023-03-04T15:49:11;8.80;;;1.87;;
37483;SDS011;23337;52.212;9.926;2023-03-04T15:51:37;12.60;;;2.47;;
37483;SDS011;23337;52.212;9.926;2023-03-04T15:54:03;9.30;;;2.20;;
37483;SDS011;23337;52.212;9.926;2023-03-04T15:56:30;4.77;;;1.93;;
37483;SDS011;23337;52.212;9.926;2023-03-04T15:58:57;10.70;;;2.07;;
37483;SDS011;23337;52.212;9.926;2023-03-04T16:01:24;10.17;;;2.20;;